Time;durP1;ratioP1;P1;durP2;ratioP2;P2;SDS_P1;SDS_P2;PMS_P1;PMS_P2;Temp;Humidity;BMP_temperature;BMP_pressure;BME280_temperature;BME280_humidity;BME280_pressure;Samples;Min_cycle;Max_cycle;Signal;HPM_P1;HPM_P2
2023/10/17 00:01:13;;;;;;;0.60;0.40;;;;;;;14.83;56.36;95797.53;5135155;27;20448;-56
2023/10/17 00:03:45;;;;;;;0.40;0.30;;;;;;;15.16;56.03;95812.63;5135730;27;20441;-56
2023/10/17 00:06:16;;;;;;;0.40;0.20;;;;;;;15.29;55.50;95787.09;5121699;27;20442;-57
2023/10/17 00:08:50;;;;;;;1.53;0.47;;;;;;;15.09;56.22;95806.06;5135223;27;20435;-57
2023/10/17 00:11:29;;;;;;;0.47;0.30;;;;;;;15.09;56.56;95804.19;5135869;27;20532;-56
2023/10/17 00:14:07;;;;;;;0.40;0.30;;;;;;;15.48;55.44;95808.53;5135325;27;20950;-57
2023/10/17 00:16:38;;;;;;;0.83;0.83;;;;;;;15.48;55.25;95797.84;5135559;27;21023;-56
2023/10/17 00:19:09;;;;;;;0.40;0.20;;;;;;;15.13;55.95;95804.38;5134806;27;20521;-56
2023/10/17 00:21:39;;;;;;;0.60;0.30;;;;;;;14.83;56.53;95760.16;5134967;27;20444;-56
2023/10/17 00:24:11;;;;;;;0.40;0.20;;;;;;;15.36;56.15;95798.22;5134777;27;20443;-56
2023/10/17 00:26:41;;;;;;;0.83;0.40;;;;;;;15.58;55.81;95797.72;5134861;27;20477;-56
2023/10/17 00:29:09;;;;;;;0.40;0.30;;;;;;;15.74;56.06;95791.03;5134696;27;21022;-56
2023/10/17 00:31:39;;;;;;;0.40;0.20;;;;;;;15.63;55.75;95784.28;5134210;27;20444;-56
2023/10/17 00:34:15;;;;;;;1.00;0.40;;;;;;;15.55;56.49;95782.25;5134796;27;20549;-56
2023/10/17 00:36:50;;;;;;;0.97;0.40;;;;;;;15.49;56.70;95778.06;5133966;27;20512;-56
2023/10/17 00:39:29;;;;;;;0.40;0.20;;;;;;;15.85;56.04;95773.78;5134767;27;20426;-56
2023/10/17 00:42:27;;;;;;;0.40;0.30;;;;;;;15.91;55.62;95772.63;5134511;27;20491;-56
2023/10/17 00:44:56;;;;;;;0.40;0.20;;;;;;;15.93;55.64;95767.00;5134475;27;20439;-56
2023/10/17 00:47:27;;;;;;;0.40;0.20;;;;;;;15.92;55.44;95763.50;5134645;27;20446;-56
2023/10/17 00:49:59;;;;;;;0.73;0.30;;;;;;;15.92;55.28;95758.16;5134487;27;20426;-56
2023/10/17 00:52:34;;;;;;;0.70;0.70;;;;;;;15.36;57.27;95760.84;5133687;27;20472;-56
2023/10/17 00:55:04;;;;;;;0.50;0.30;;;;;;;15.06;58.02;95762.03;5133931;27;20974;-56
2023/10/17 00:57:33;;;;;;;0.40;0.30;;;;;;;14.80;57.74;95766.06;5133479;27;20440;-56
2023/10/17 01:00:11;;;;;;;0.50;0.30;;;;;;;14.98;56.45;95743.16;5133993;27;20985;-56
2023/10/17 01:02:46;;;;;;;0.50;0.30;;;;;;;15.31;55.03;95757.44;5133802;27;20837;-55
2023/10/17 01:05:15;;;;;;;0.50;0.37;;;;;;;15.27;54.96;95759.91;5133988;27;20429;-56
2023/10/17 01:07:44;;;;;;;0.50;0.50;;;;;;;14.95;54.89;95754.44;5134058;27;20430;-56
2023/10/17 01:10:13;;;;;;;0.40;0.20;;;;;;;14.85;55.40;95751.91;5133888;27;20431;-56
2023/10/17 01:12:49;;;;;;;0.50;0.30;;;;;;;15.07;54.65;95758.28;5134028;27;20485;-56
2023/10/17 01:15:21;;;;;;;0.60;0.30;;;;;;;14.60;55.32;95764.44;5133971;27;20470;-56
2023/10/17 01:17:54;;;;;;;0.50;0.20;;;;;;;14.85;54.63;95768.69;5108813;27;20504;-55
2023/10/17 01:20:23;;;;;;;0.40;0.20;;;;;;;15.04;53.97;95764.19;5133993;27;20438;-55
2023/10/17 01:22:55;;;;;;;0.40;0.20;;;;;;;14.93;54.64;95762.72;5133953;27;20448;-56
2023/10/17 01:25:29;;;;;;;0.40;0.40;;;;;;;14.78;54.75;95768.25;5133376;27;20465;-55
2023/10/17 01:27:59;;;;;;;0.50;0.30;;;;;;;14.83;54.80;95768.19;5133504;27;20506;-57
2023/10/17 01:30:29;;;;;;;0.40;0.30;;;;;;;15.11;53.76;95767.31;5133126;27;20935;-57
2023/10/17 01:32:58;;;;;;;0.40;0.27;;;;;;;15.15;53.88;95760.31;5133575;27;20535;-56
2023/10/17 01:35:27;;;;;;;0.43;0.27;;;;;;;14.94;53.75;95769.66;5133130;27;21173;-56
2023/10/17 01:37:56;;;;;;;0.40;0.20;;;;;;;15.15;53.04;95764.88;5133376;27;20465;-56
2023/10/17 01:40:27;;;;;;;0.40;0.27;;;;;;;15.36;53.47;95762.69;5133203;27;20514;-56
2023/10/17 01:42:57;;;;;;;0.40;0.30;;;;;;;15.01;53.59;95751.41;5133012;27;20449;-56
2023/10/17 01:45:29;;;;;;;0.40;0.30;;;;;;;15.17;53.33;95776.84;5133222;27;20522;-56
2023/10/17 01:47:58;;;;;;;0.43;0.30;;;;;;;15.11;53.06;95769.97;5132877;27;20434;-56
2023/10/17 01:50:27;;;;;;;0.40;0.20;;;;;;;15.33;52.89;95771.31;5133607;27;20473;-56
2023/10/17 01:52:59;;;;;;;0.50;0.30;;;;;;;15.08;53.56;95772.41;5132807;27;20445;-56
2023/10/17 01:55:30;;;;;;;0.50;0.30;;;;;;;15.34;53.02;95772.88;5133508;27;20462;-56
2023/10/17 01:57:58;;;;;;;0.40;0.20;;;;;;;15.41;52.02;95752.75;5132671;27;20446;-57
2023/10/17 02:00:37;;;;;;;0.40;0.20;;;;;;;14.97;52.03;95762.97;5132994;27;20452;-56
2023/10/17 02:03:07;;;;;;;0.50;0.30;;;;;;;14.91;53.26;95772.09;5132510;27;20442;-57
2023/10/17 02:05:36;;;;;;;0.40;0.20;;;;;;;14.75;54.02;95776.81;5132788;27;20475;-56
2023/10/17 02:08:06;;;;;;;0.67;0.40;;;;;;;14.60;54.46;95779.63;5132753;27;20951;-56
2023/10/17 02:10:36;;;;;;;0.40;0.20;;;;;;;14.72;53.69;95776.59;5132902;27;20434;-56
2023/10/17 02:13:07;;;;;;;0.40;0.30;;;;;;;15.07;53.84;95773.50;5132357;27;20445;-57
2023/10/17 02:15:38;;;;;;;0.40;0.20;;;;;;;14.96;53.31;95770.16;5132451;27;20991;-56
2023/10/17 02:18:14;;;;;;;0.40;0.30;;;;;;;14.93;53.13;95773.41;5132984;27;20442;-56
2023/10/17 02:20:48;;;;;;;0.57;0.50;;;;;;;14.83;53.71;95775.38;5132358;27;20442;-56
2023/10/17 02:23:25;;;;;;;0.50;0.30;;;;;;;14.97;53.45;95779.78;5132280;27;20438;-56
2023/10/17 02:26:00;;;;;;;0.40;0.30;;;;;;;15.08;52.99;95775.09;5132401;27;20462;-56
2023/10/17 02:28:29;;;;;;;0.60;0.37;;;;;;;14.97;51.82;95750.41;5132475;27;20473;-56
2023/10/17 02:30:58;;;;;;;0.40;0.30;;;;;;;15.23;52.76;95766.88;5132636;27;20449;-56
2023/10/17 02:33:28;;;;;;;0.40;0.30;;;;;;;14.85;52.83;95773.25;5132036;27;20973;-56
2023/10/17 02:36:09;;;;;;;0.40;0.30;;;;;;;14.74;53.07;95772.56;5132279;27;20435;-56
2023/10/17 02:38:37;;;;;;;0.40;0.30;;;;;;;14.75;53.18;95768.78;5131853;27;20810;-56
2023/10/17 02:41:12;;;;;;;0.40;0.23;;;;;;;14.64;53.42;95772.69;5132457;27;20517;-56
2023/10/17 02:43:42;;;;;;;0.50;0.30;;;;;;;14.57;53.68;95773.00;5105877;27;20445;-56
2023/10/17 02:46:12;;;;;;;0.40;0.30;;;;;;;14.50;53.77;95771.72;5131328;27;20431;-56
2023/10/17 02:48:42;;;;;;;0.40;0.20;;;;;;;14.56;54.30;95771.41;5131766;27;20435;-56
2023/10/17 02:51:33;;;;;;;1.73;1.03;;;;;;;14.61;53.73;95768.69;5131969;27;20445;-56
2023/10/17 02:54:12;;;;;;;0.40;0.20;;;;;;;14.43;54.45;95773.94;5131721;27;20481;-56
2023/10/17 02:56:51;;;;;;;0.40;0.30;;;;;;;14.40;54.30;95739.84;5105794;28;20442;-56
2023/10/17 02:59:21;;;;;;;0.60;0.30;;;;;;;14.66;53.85;95777.72;5131361;28;20952;-56
2023/10/17 03:01:55;;;;;;;0.50;0.50;;;;;;;14.68;54.14;95778.22;5132443;28;20499;-57
2023/10/17 03:04:24;;;;;;;0.80;0.43;;;;;;;14.80;54.88;95771.41;5131708;28;20487;-57
2023/10/17 03:06:59;;;;;;;0.50;0.30;;;;;;;14.36;56.17;95782.28;5131921;28;20438;-56
2023/10/17 03:09:39;;;;;;;1.83;0.97;;;;;;;14.06;56.73;95784.41;5131581;28;20522;-56
2023/10/17 03:12:11;;;;;;;0.40;0.20;;;;;;;14.00;56.85;95779.09;5131739;28;20474;-56
2023/10/17 03:15:17;;;;;;;0.60;0.53;;;;;;;13.16;57.65;95701.38;5131625;28;20474;-56
2023/10/17 03:17:28;;;;;;;0.40;0.30;;;;;;;13.68;57.30;95770.84;5131176;28;20441;-56
2023/10/17 03:19:57;;;;;;;0.40;0.30;;;;;;;13.93;56.39;95767.97;5134101;27;20438;-56
2023/10/17 03:22:26;;;;;;;0.57;0.40;;;;;;;14.13;55.84;95766.19;5136062;27;20923;-56
2023/10/17 03:25:18;;;;;;;0.40;0.20;;;;;;;14.10;55.81;95756.91;5136107;27;21014;-56
2023/10/17 03:27:50;;;;;;;0.50;0.40;;;;;;;14.09;55.88;95767.84;5114026;27;20438;-56
2023/10/17 03:30:22;;;;;;;0.50;0.40;;;;;;;13.75;56.46;95765.97;5135823;27;20509;-55
2023/10/17 03:33:03;;;;;;;0.40;0.20;;;;;;;13.86;56.18;95767.47;5136298;27;20435;-56
2023/10/17 03:35:35;;;;;;;0.50;0.30;;;;;;;14.07;55.33;95772.63;5135848;27;20527;-56
2023/10/17 03:38:08;;;;;;;0.40;0.20;;;;;;;13.98;55.38;95767.13;5135281;27;20532;-55
2023/10/17 03:40:51;;;;;;;0.63;0.30;;;;;;;13.76;56.04;95777.44;5135827;27;20434;-55
2023/10/17 03:43:22;;;;;;;0.50;0.33;;;;;;;13.57;55.67;95773.81;5136132;27;20521;-55
2023/10/17 03:45:56;;;;;;;0.43;0.27;;;;;;;13.61;56.35;95772.97;5130724;27;20956;-55
2023/10/17 03:48:28;;;;;;;0.40;0.30;;;;;;;13.81;56.08;95766.75;5135647;27;20425;-55
2023/10/17 03:51:08;;;;;;;0.57;0.50;;;;;;;13.83;55.31;95773.38;5135432;27;20434;-56
2023/10/17 03:53:44;;;;;;;0.40;0.30;;;;;;;13.64;55.18;95772.44;5135563;27;20433;-55
2023/10/17 03:56:23;;;;;;;0.50;0.30;;;;;;;13.65;55.24;95759.91;5135138;27;20438;-56
2023/10/17 03:58:57;;;;;;;0.50;0.30;;;;;;;13.84;54.94;95766.97;5135525;27;20502;-55
2023/10/17 04:01:27;;;;;;;1.73;0.40;;;;;;;13.80;54.79;95765.94;5135104;27;20434;-56
2023/10/17 04:03:56;;;;;;;0.40;0.30;;;;;;;13.73;55.11;95764.66;5135309;27;20478;-56
2023/10/17 04:06:34;;;;;;;0.67;0.67;;;;;;;13.75;55.89;95762.50;5109117;27;20521;-56
2023/10/17 04:09:25;;;;;;;0.40;0.20;;;;;;;13.62;55.68;95749.81;5134370;27;20509;-56
2023/10/17 04:11:55;;;;;;;0.50;0.30;;;;;;;13.43;56.40;95746.22;5135006;27;20438;-56
2023/10/17 04:14:33;;;;;;;0.40;0.27;;;;;;;13.63;56.53;95764.75;5134563;27;20558;-56
2023/10/17 04:17:05;;;;;;;0.50;0.30;;;;;;;13.48;56.48;95755.00;5135156;27;20434;-56
2023/10/17 04:19:39;;;;;;;0.40;0.30;;;;;;;13.54;56.27;95758.38;5135064;27;20499;-56
2023/10/17 04:22:14;;;;;;;0.60;0.40;;;;;;;13.55;56.39;95762.66;5131934;27;20438;-57
2023/10/17 04:24:51;;;;;;;0.50;0.50;;;;;;;12.93;56.50;95662.91;5126540;27;20867;-54
2023/10/17 04:27:22;;;;;;;0.60;0.30;;;;;;;13.55;56.95;95768.78;5134434;27;20522;-56
2023/10/17 04:29:56;;;;;;;1.47;1.37;;;;;;;13.55;56.96;95766.13;5121040;27;20526;-56
2023/10/17 04:32:28;;;;;;;0.60;0.50;;;;;;;13.56;57.43;95767.69;5128436;27;20427;-56
2023/10/17 04:34:58;;;;;;;0.50;0.40;;;;;;;13.61;57.47;95770.31;5134377;27;20565;-56
2023/10/17 04:37:32;;;;;;;0.70;0.57;;;;;;;13.96;56.79;95766.63;5134505;27;20513;-55
2023/10/17 04:42:56;;;;;;;1.10;0.60;;;;;;;13.96;57.00;95759.41;5133874;27;20479;-55
2023/10/17 04:45:28;;;;;;;0.40;0.40;;;;;;;14.04;57.06;95776.66;5134088;27;20433;-56
2023/10/17 04:50:56;;;;;;;0.40;0.30;;;;;;;13.89;58.27;95772.25;5134368;27;20982;-55
2023/10/17 04:53:27;;;;;;;0.40;0.40;;;;;;;13.99;58.21;95766.84;5133679;27;20440;-56
2023/10/17 04:56:09;;;;;;;0.40;0.30;;;;;;;14.15;57.92;95766.72;5134537;27;20474;-56
2023/10/17 04:58:41;;;;;;;0.40;0.20;;;;;;;14.15;58.66;95772.84;5112595;27;20442;-55
2023/10/17 05:04:13;;;;;;;0.40;0.40;;;;;;;14.05;59.28;95782.78;5133406;27;20521;-56
2023/10/17 06:16:51;;;;;;;0.60;0.53;;;;;;;14.56;54.85;95829.31;5132584;27;20478;-54
2023/10/17 06:19:25;;;;;;;0.57;0.40;;;;;;;14.66;54.31;95833.75;5106039;27;20833;-55
2023/10/17 06:24:46;;;;;;;0.57;0.57;;;;;;;14.12;55.35;95839.25;5132053;27;20890;-55
2023/10/17 06:33:02;;;;;;;0.73;0.43;;;;;;;14.59;52.89;95826.88;5132290;27;20513;-55
2023/10/17 06:35:31;;;;;;;0.70;0.70;;;;;;;14.16;54.01;95838.44;5132025;27;20477;-56
2023/10/17 06:38:00;;;;;;;0.50;0.30;;;;;;;14.40;54.60;95847.31;5132120;27;20438;-56
2023/10/17 06:40:32;;;;;;;0.40;0.30;;;;;;;14.36;53.62;95843.63;5105829;27;20434;-56
2023/10/17 06:43:01;;;;;;;2.00;0.50;;;;;;;14.35;53.45;95851.88;5127045;27;20435;-56
2023/10/17 06:45:37;;;;;;;0.57;0.57;;;;;;;14.20;54.13;95839.44;5132482;27;21110;-56
2023/10/17 06:48:08;;;;;;;0.50;0.30;;;;;;;14.19;53.94;95840.53;5132864;27;20434;-57
2023/10/17 06:53:34;;;;;;;0.40;0.30;;;;;;;14.29;55.57;95851.13;5130530;27;20453;-57
2023/10/17 06:56:09;;;;;;;0.47;0.30;;;;;;;13.86;53.64;95846.63;5132197;27;20531;-56
2023/10/17 06:58:38;;;;;;;1.90;0.63;;;;;;;14.17;54.75;95848.00;5131644;28;21020;-56
2023/10/17 07:01:19;;;;;;;0.90;0.60;;;;;;;14.23;53.43;95854.91;5132378;28;20435;-56
2023/10/17 07:03:48;;;;;;;0.50;0.30;;;;;;;14.47;54.30;95852.34;5131789;28;20435;-55
2023/10/17 07:06:21;;;;;;;0.50;0.30;;;;;;;14.58;52.78;95856.50;5123761;28;20433;-56
2023/10/17 07:08:50;;;;;;;0.40;0.30;;;;;;;14.86;53.34;95853.00;5128656;28;20443;-55
2023/10/17 07:14:22;;;;;;;0.50;0.30;;;;;;;14.72;54.18;95846.78;5120350;28;21274;-57
2023/10/17 07:16:57;;;;;;;0.40;0.30;;;;;;;15.17;52.76;95846.28;5132616;28;20844;-55
2023/10/17 07:22:14;;;;;;;0.40;0.30;;;;;;;15.38;51.21;95857.50;5131989;28;20435;-56
2023/10/17 07:24:50;;;;;;;0.73;0.70;;;;;;;14.94;51.78;95854.28;5132221;28;20434;-55
2023/10/17 07:27:26;;;;;;;0.50;0.50;;;;;;;14.90;52.36;95862.03;5126728;28;20474;-56
2023/10/17 07:30:10;;;;;;;0.60;0.30;;;;;;;15.18;53.21;95860.41;5132045;28;20434;-56
2023/10/17 07:32:49;;;;;;;0.70;0.70;;;;;;;14.83;53.88;95860.78;5132104;28;20479;-56
2023/10/17 07:35:23;;;;;;;0.70;0.70;;;;;;;15.00;53.30;95861.94;5130821;28;20870;-56
2023/10/17 07:37:56;;;;;;;1.33;0.30;;;;;;;15.24;52.98;95857.41;5131845;28;20494;-56
2023/10/17 07:40:42;;;;;;;0.73;0.73;;;;;;;15.07;52.52;95857.06;5132262;28;20491;-56
2023/10/17 07:43:14;;;;;;;5.97;0.60;;;;;;;14.80;53.13;95846.13;5132388;28;20435;-56
2023/10/17 07:45:43;;;;;;;0.50;0.37;;;;;;;14.86;53.19;95844.22;5131022;28;20430;-56
2023/10/17 07:48:21;;;;;;;1.40;1.40;;;;;;;15.15;53.42;95837.72;5131764;28;20433;-56
2023/10/17 07:50:51;;;;;;;1.40;0.50;;;;;;;15.48;52.07;95827.25;5106906;28;20839;-56
2023/10/17 07:53:23;;;;;;;0.50;0.30;;;;;;;15.44;51.50;95835.00;5131753;28;20438;-56
2023/10/17 07:56:03;;;;;;;8.33;0.73;;;;;;;14.80;52.21;95759.97;5131912;28;20473;-56
2023/10/17 07:58:43;;;;;;;0.60;0.43;;;;;;;15.51;51.79;95829.34;5132000;28;20434;-56
2023/10/17 08:01:16;;;;;;;2.17;0.70;;;;;;;15.42;51.85;95826.47;5131181;28;20426;-56
2023/10/17 08:03:57;;;;;;;0.73;0.40;;;;;;;15.47;51.59;95833.66;5131939;28;20442;-56
2023/10/17 08:06:30;;;;;;;2.63;0.67;;;;;;;15.77;50.98;95846.59;5108174;27;21015;-56
2023/10/17 08:09:00;;;;;;;0.77;0.30;;;;;;;15.62;51.02;95836.13;5124924;27;20537;-56
2023/10/17 08:11:31;;;;;;;0.50;0.40;;;;;;;15.96;51.01;95830.56;5135092;27;20766;-56
2023/10/17 08:14:09;;;;;;;0.50;0.30;;;;;;;16.11;49.95;95833.81;5135104;27;20919;-56
2023/10/17 08:16:41;;;;;;;4.43;0.70;;;;;;;15.83;50.21;95832.09;5134389;27;20497;-56
2023/10/17 08:19:21;;;;;;;0.50;0.50;;;;;;;16.01;48.92;95836.66;5135008;27;20944;-56
2023/10/17 08:21:59;;;;;;;0.40;0.30;;;;;;;15.76;49.51;95831.66;5134969;27;20484;-56
2023/10/17 08:24:33;;;;;;;0.40;0.30;;;;;;;15.47;50.46;95833.66;5135286;27;20488;-57
2023/10/17 08:29:57;;;;;;;1.30;0.33;;;;;;;15.33;50.86;95838.09;5116499;27;20862;-56
2023/10/17 08:32:39;;;;;;;0.40;0.30;;;;;;;15.30;51.63;95833.31;5135167;27;20495;-56
2023/10/17 08:35:11;;;;;;;0.40;0.30;;;;;;;15.42;50.82;95831.81;5134501;27;20435;-55
2023/10/17 08:37:44;;;;;;;3.60;0.40;;;;;;;15.25;50.96;95832.28;5134372;27;20481;-55
2023/10/17 08:43:03;;;;;;;0.70;0.40;;;;;;;15.42;51.58;95828.34;5130858;27;20501;-55
2023/10/17 08:45:37;;;;;;;0.60;0.60;;;;;;;15.20;52.07;95829.66;5134627;27;20438;-56
2023/10/17 08:48:09;;;;;;;1.17;0.60;;;;;;;14.97;52.64;95830.50;5134556;27;20442;-55
2023/10/17 08:50:41;;;;;;;0.50;0.30;;;;;;;14.78;53.06;95831.47;5134661;27;20427;-55
2023/10/17 08:53:13;;;;;;;0.50;0.50;;;;;;;14.79;53.23;95820.53;5134316;27;20950;-55
2023/10/17 08:55:42;;;;;;;0.50;0.37;;;;;;;15.07;52.55;95838.38;5134272;27;20483;-56
2023/10/17 08:58:11;;;;;;;0.50;0.30;;;;;;;15.27;52.28;95830.13;5134169;27;21063;-55
2023/10/17 09:00:55;;;;;;;0.50;0.40;;;;;;;15.40;52.04;95825.16;5134203;27;20434;-55
2023/10/17 09:03:31;;;;;;;0.50;0.30;;;;;;;15.28;51.18;95822.91;5112186;27;20434;-56
2023/10/17 09:06:28;;;;;;;0.50;0.50;;;;;;;15.17;51.78;95824.13;5134215;27;20443;-55
2023/10/17 09:09:17;;;;;;;1.13;1.03;;;;;;;15.39;51.67;95824.38;5133934;27;20430;-56
2023/10/17 09:12:11;;;;;;;0.50;0.40;;;;;;;15.56;51.42;95824.69;5134402;27;20506;-55
2023/10/17 09:14:44;;;;;;;0.40;0.30;;;;;;;15.81;51.06;95823.56;5134212;27;20430;-55
2023/10/17 09:17:16;;;;;;;0.40;0.30;;;;;;;16.07;52.79;95814.06;5132638;27;20491;-59
2023/10/17 09:19:50;;;;;;;1.03;0.40;;;;;;;16.38;56.33;95801.00;5134253;27;20431;-60
2023/10/17 09:22:38;;;;;;;7.80;0.40;;;;;;;16.28;50.04;95814.53;5128218;27;20971;-59
2023/10/17 09:25:19;;;;;;;0.40;0.30;;;;;;;16.06;50.08;95817.84;5132002;27;20483;-60
2023/10/17 09:27:52;;;;;;;0.50;0.30;;;;;;;16.16;51.16;95800.84;5129292;27;20858;-59
2023/10/17 09:30:23;;;;;;;0.40;0.20;;;;;;;16.28;56.81;95771.75;5129718;27;20439;-60
2023/10/17 09:32:55;;;;;;;0.40;0.30;;;;;;;15.86;50.10;95804.78;5128318;27;20877;-59
2023/10/17 09:35:24;;;;;;;2.73;0.40;;;;;;;15.86;50.37;95791.44;5133705;27;21190;-61
2023/10/17 09:37:56;;;;;;;0.50;0.30;;;;;;;15.85;50.77;95771.13;5133243;27;20842;-60
2023/10/17 09:40:27;;;;;;;0.40;0.30;;;;;;;16.23;50.17;95787.88;5124147;27;20471;-60
2023/10/17 09:42:56;;;;;;;0.40;0.30;;;;;;;16.12;49.71;95781.09;5114208;27;20504;-60
2023/10/17 09:45:27;;;;;;;0.40;0.30;;;;;;;15.52;49.13;95782.81;5128019;27;20439;-60
2023/10/17 09:48:06;;;;;;;0.40;0.23;;;;;;;16.08;53.99;95770.22;5132410;27;20437;-60
2023/10/17 09:50:37;;;;;;;0.40;0.27;;;;;;;16.60;55.15;95770.94;5124849;27;20431;-59
2023/10/17 09:53:14;;;;;;;0.50;0.30;;;;;;;16.67;48.41;95763.34;5106971;27;20495;-60
2023/10/17 09:55:48;;;;;;;4.63;0.33;;;;;;;16.82;53.19;95755.81;5133332;27;20434;-60
2023/10/17 09:58:22;;;;;;;0.53;0.30;;;;;;;16.44;48.26;95757.81;5132947;27;20501;-60
2023/10/17 10:00:54;;;;;;;0.40;0.30;;;;;;;16.69;51.03;95753.13;5133198;27;20940;-60
2023/10/17 10:03:28;;;;;;;0.40;0.23;;;;;;;16.70;49.14;95743.97;5129645;27;20426;-60
2023/10/17 10:06:21;;;;;;;0.50;0.50;;;;;;;16.46;49.25;95738.78;5131863;27;20443;-60
2023/10/17 10:08:55;;;;;;;0.40;0.20;;;;;;;16.48;48.56;95736.63;5132456;27;20944;-60
2023/10/17 10:11:58;;;;;;;0.40;0.30;;;;;;;16.31;48.49;95733.72;5132818;27;20499;-60
2023/10/17 10:14:42;;;;;;;0.80;0.30;;;;;;;16.31;50.37;95721.16;5106264;27;20477;-60
2023/10/17 10:17:15;;;;;;;0.97;0.90;;;;;;;16.31;48.57;95720.34;5132382;27;20494;-60
2023/10/17 10:20:02;;;;;;;0.43;0.40;;;;;;;16.70;56.21;95711.88;5132623;27;20439;-61
2023/10/17 10:22:59;;;;;;;0.50;0.40;;;;;;;16.39;51.93;95693.69;5132513;27;20438;-60
2023/10/17 10:25:27;;;;;;;0.50;0.30;;;;;;;16.49;49.44;95703.44;5086028;27;20465;-59
2023/10/17 10:28:29;;;;;;;0.40;0.30;;;;;;;16.57;48.49;95701.97;5132674;27;20446;-59
2023/10/17 10:30:58;;;;;;;0.50;0.40;;;;;;;16.33;48.16;95689.53;5132911;27;20437;-55
2023/10/17 10:33:30;;;;;;;1.33;0.50;;;;;;;16.42;48.71;95690.41;5129032;27;20443;-55
2023/10/17 10:36:01;;;;;;;1.40;0.60;;;;;;;16.59;47.84;95687.22;5123110;27;20470;-55
2023/10/17 10:38:30;;;;;;;4.73;0.40;;;;;;;16.72;47.78;95686.38;5132102;27;20470;-55
2023/10/17 10:41:07;;;;;;;0.50;0.40;;;;;;;16.88;47.50;95689.53;5132058;27;20449;-54
2023/10/17 10:43:36;;;;;;;0.40;0.30;;;;;;;16.66;48.06;95678.75;5105880;27;20453;-54
2023/10/17 10:46:05;;;;;;;0.50;0.30;;;;;;;16.34;49.08;95682.31;5131884;27;20443;-54
2023/10/17 10:48:33;;;;;;;0.50;0.30;;;;;;;16.17;49.61;95676.72;5131812;27;20439;-54
2023/10/17 10:51:04;;;;;;;0.40;0.30;;;;;;;16.30;49.25;95676.75;5131955;27;20856;-55
2023/10/17 10:53:36;;;;;;;0.50;0.30;;;;;;;16.44;48.61;95674.84;5123211;27;20500;-55
2023/10/17 10:56:09;;;;;;;0.50;0.30;;;;;;;16.15;50.55;95666.31;5105577;28;20499;-54
2023/10/17 10:58:47;;;;;;;1.80;0.80;;;;;;;15.80;50.75;95642.91;5132018;28;21074;-54
2023/10/17 11:01:18;;;;;;;0.73;0.63;;;;;;;15.89;51.60;95662.50;5131887;28;20955;-54
2023/10/17 11:03:48;;;;;;;0.80;0.40;;;;;;;16.13;50.25;95660.50;5132110;28;20522;-55
2023/10/17 11:06:24;;;;;;;0.60;0.57;;;;;;;15.87;51.29;95640.63;5131629;28;20448;-55
2023/10/17 11:08:54;;;;;;;0.50;0.33;;;;;;;15.82;50.58;95638.84;5132184;28;20486;-54
2023/10/17 11:11:24;;;;;;;0.50;0.33;;;;;;;15.94;50.47;95641.03;5132191;28;20569;-55
2023/10/17 11:13:56;;;;;;;1.63;1.07;;;;;;;15.53;51.18;95634.81;5132007;28;20490;-55
2023/10/17 11:16:26;;;;;;;1.13;0.83;;;;;;;15.75;51.42;95638.44;5131880;28;20446;-55
2023/10/17 11:18:55;;;;;;;0.50;0.40;;;;;;;15.95;51.41;95625.78;5131747;28;21010;-56
2023/10/17 11:21:25;;;;;;;2.93;0.67;;;;;;;16.17;51.24;95624.03;5132145;28;20466;-56
2023/10/17 11:23:59;;;;;;;0.80;0.80;;;;;;;16.43;50.44;95632.38;5131619;28;20471;-56
2023/10/17 11:26:32;;;;;;;0.60;0.40;;;;;;;16.59;50.11;95614.16;5131603;28;20474;-56
2023/10/17 11:29:03;;;;;;;0.50;0.50;;;;;;;16.70;50.15;95607.47;5132243;28;20440;-57
2023/10/17 11:31:32;;;;;;;0.50;0.40;;;;;;;16.90;49.62;95615.09;5131546;28;20427;-57
2023/10/17 11:34:04;;;;;;;1.57;0.60;;;;;;;16.55;50.49;95611.28;5131625;28;20476;-56
2023/10/17 11:36:46;;;;;;;0.63;0.30;;;;;;;16.67;49.69;95608.88;5130221;28;20439;-56
2023/10/17 11:39:16;;;;;;;0.40;0.40;;;;;;;16.66;49.57;95603.81;5131289;27;20484;-56
2023/10/17 11:41:48;;;;;;;0.77;0.77;;;;;;;16.94;49.26;95597.31;5134511;27;20456;-58
2023/10/17 11:44:18;;;;;;;0.70;0.50;;;;;;;16.99;49.34;95597.22;5135288;27;20442;-57
2023/10/17 11:46:55;;;;;;;0.40;0.30;;;;;;;17.15;48.95;95603.81;5134728;27;20437;-57
2023/10/17 11:49:28;;;;;;;0.40;0.30;;;;;;;16.99;48.39;95557.84;5134487;27;20470;-56
2023/10/17 11:52:04;;;;;;;0.50;0.33;;;;;;;17.11;50.10;95592.09;5135563;27;20524;-57
2023/10/17 11:54:33;;;;;;;2.60;0.50;;;;;;;16.82;49.15;95592.50;5135231;27;20821;-57
2023/10/17 11:57:12;;;;;;;1.57;0.50;;;;;;;16.75;49.74;95592.09;5135090;27;20480;-57
2023/10/17 11:59:58;;;;;;;0.40;0.30;;;;;;;16.97;49.31;95592.16;5129468;27;20481;-57
2023/10/17 12:02:29;;;;;;;0.60;0.53;;;;;;;16.84;49.19;95594.88;5108520;27;20469;-57
2023/10/17 12:05:01;;;;;;;0.70;0.30;;;;;;;16.57;49.09;95600.28;5135331;27;20442;-56
2023/10/17 12:07:31;;;;;;;0.60;0.47;;;;;;;16.00;50.27;95597.09;5134883;27;20523;-56
2023/10/17 12:10:04;;;;;;;0.60;0.53;;;;;;;16.13;50.34;95598.19;5130829;27;20444;-56
2023/10/17 12:12:35;;;;;;;0.80;0.30;;;;;;;16.67;49.32;95600.06;5134537;27;20430;-57
2023/10/17 12:15:05;;;;;;;0.40;0.30;;;;;;;16.91;48.85;95590.69;5134625;27;20438;-58
2023/10/17 12:17:35;;;;;;;0.40;0.40;;;;;;;16.91;49.07;95593.38;5120169;27;20475;-57
2023/10/17 12:20:10;;;;;;;0.40;0.27;;;;;;;16.97;49.33;95588.69;5115317;27;20504;-56
2023/10/17 12:22:40;;;;;;;0.53;0.50;;;;;;;16.73;49.46;95585.47;5133064;27;20538;-57
2023/10/17 12:25:10;;;;;;;0.70;0.60;;;;;;;16.15;51.00;95583.44;5128917;27;20495;-57
2023/10/17 12:27:39;;;;;;;0.50;0.30;;;;;;;16.38;50.63;95587.78;5134543;27;20473;-56
2023/10/17 12:30:11;;;;;;;0.50;0.30;;;;;;;16.55;51.09;95583.72;5134376;27;20445;-56
2023/10/17 12:32:41;;;;;;;0.50;0.30;;;;;;;16.61;51.92;95593.22;5134769;27;20431;-56
2023/10/17 12:35:12;;;;;;;0.40;0.30;;;;;;;16.53;51.62;95586.69;5121262;27;20426;-58
2023/10/17 12:37:44;;;;;;;0.77;0.77;;;;;;;16.83;50.51;95587.91;5134581;27;20479;-56
2023/10/17 12:40:20;;;;;;;0.50;0.30;;;;;;;16.47;50.41;95503.03;5134562;27;20485;-57
2023/10/17 12:42:50;;;;;;;0.40;0.20;;;;;;;16.93;51.04;95582.34;5134327;27;20955;-57
2023/10/17 12:45:19;;;;;;;0.40;0.30;;;;;;;16.96;50.51;95576.38;5126657;27;20484;-57
2023/10/17 12:47:49;;;;;;;0.60;0.50;;;;;;;17.25;49.31;95563.41;5133055;27;20434;-57
2023/10/17 12:50:18;;;;;;;0.40;0.20;;;;;;;17.42;48.63;95566.19;5134542;27;20447;-56
2023/10/17 12:52:49;;;;;;;0.40;0.20;;;;;;;17.34;49.23;95566.91;5132752;27;20512;-57
2023/10/17 12:55:19;;;;;;;0.40;0.30;;;;;;;16.78;50.32;95585.34;5134558;27;20434;-57
2023/10/17 12:57:48;;;;;;;0.50;0.30;;;;;;;16.72;51.88;95581.22;5134442;27;20521;-56
2023/10/17 13:00:17;;;;;;;0.40;0.30;;;;;;;16.83;52.10;95580.69;5134355;27;20861;-56
2023/10/17 13:02:47;;;;;;;0.60;0.30;;;;;;;16.86;51.48;95572.06;5133641;27;20442;-56
2023/10/17 13:05:15;;;;;;;0.47;0.30;;;;;;;16.62;52.78;95573.41;5133821;27;20521;-56
2023/10/17 13:07:44;;;;;;;0.50;0.30;;;;;;;16.58;53.72;95567.06;5134163;27;20431;-56
2023/10/17 13:10:14;;;;;;;0.70;0.60;;;;;;;16.55;56.12;95570.34;5134158;27;20525;-56
2023/10/17 13:12:42;;;;;;;0.60;0.60;;;;;;;16.54;56.72;95582.16;5133154;27;20438;-56
2023/10/17 13:15:14;;;;;;;0.50;0.40;;;;;;;16.46;57.84;95563.00;5133836;27;20430;-57
2023/10/17 13:17:44;;;;;;;0.57;0.53;;;;;;;16.31;59.86;95575.91;5127184;27;20516;-56
2023/10/17 13:20:21;;;;;;;0.40;0.30;;;;;;;15.80;60.70;95574.22;5113041;28;20565;-57
2023/10/17 13:23:06;;;;;;;0.50;0.30;;;;;;;15.04;63.27;95517.81;5114119;27;20445;-56
2023/10/17 13:25:38;;;;;;;0.40;0.30;;;;;;;15.37;64.06;95569.31;5132917;27;20435;-56
2023/10/17 13:28:07;;;;;;;0.40;0.30;;;;;;;15.64;63.77;95570.22;5133248;27;20438;-56
2023/10/17 13:30:35;;;;;;;0.40;0.30;;;;;;;15.44;64.86;95569.72;5132819;27;20517;-56
2023/10/17 13:33:04;;;;;;;0.73;0.73;;;;;;;15.53;64.96;95576.84;5133554;27;20825;-56
2023/10/17 13:35:37;;;;;;;0.63;0.40;;;;;;;15.11;66.03;95579.63;5133014;27;20808;-56
2023/10/17 13:38:05;;;;;;;0.57;0.57;;;;;;;15.14;67.59;95577.19;5133091;27;20453;-56
2023/10/17 13:40:34;;;;;;;1.73;1.37;;;;;;;15.19;67.68;95582.44;5132872;27;20471;-56
2023/10/17 13:43:04;;;;;;;0.40;0.30;;;;;;;15.36;67.85;95581.09;5132921;27;20442;-56
2023/10/17 13:45:39;;;;;;;0.47;0.30;;;;;;;15.17;69.63;95581.13;5133427;27;20560;-57